• Join FlightAware (Why Join?)
  • Login
  • US Flag 
06:33PM EDT


 

Airport Tracker/Info


-or-


 

Live Flight TrackerFlight Track Log ✈ AVA42 ✈ 01-Aug-2013 ✈ SKRG / MDE - KJFK

Flight Track Log - Related Links

Times and Time Zones

All times are in EDT time to prevent confusion due to time zone crossing. See the AVA42 flight status page for this flight to view local times or setup timezone preferences in your user account.

Time Position Orientation Groundspeed Altitude Reporting Facility
EDT Latitude Longitude Course Direction KTS MPH feet Rate Location/Type
04:06AM 6.7570 -75.5211 349° North  Level FlightAware Approximate
04:07AM 6.8735 -75.5441 349° North  Level FlightAware Approximate
04:08AM 6.9922 -75.5541 355° North  Level FlightAware Approximate
04:09AM 7.1109 -75.5642 355° North  Level FlightAware Approximate
04:10AM 7.2296 -75.5742 355° North  Level FlightAware Approximate
04:11AM 7.3482 -75.5842 355° North  Level FlightAware Approximate
04:12AM 7.4669 -75.5943 355° North  Level FlightAware Approximate
04:13AM 7.5856 -75.6043 355° North  Level FlightAware Approximate
04:14AM 7.7042 -75.6144 355° North  Level FlightAware Approximate
04:15AM 7.8229 -75.6244 355° North  Level FlightAware Approximate
04:16AM 7.9416 -75.6345 355° North  Level FlightAware Approximate
04:17AM 8.0603 -75.6446 355° North  Level FlightAware Approximate
04:18AM 8.1789 -75.6546 355° North  Level FlightAware Approximate
04:19AM 8.2976 -75.6647 355° North  Level FlightAware Approximate
04:20AM 8.4163 -75.6748 355° North  Level FlightAware Approximate
04:21AM 8.7325 -75.7077 354° North  Level FlightAware Approximate
04:22AM 9.0485 -75.7434 354° North  Level FlightAware Approximate
04:23AM 9.3644 -75.7793 354° North  Level FlightAware Approximate
04:24AM 9.6801 -75.8151 354° North  Level FlightAware Approximate
04:25AM 9.9958 -75.8510 354° North  Level FlightAware Approximate
04:26AM 10.3116 -75.8871 354° North  Level FlightAware Approximate
04:27AM 10.6276 -75.9233 354° North  Level FlightAware Approximate
04:28AM 10.9437 -75.9596 354° North  Level FlightAware Approximate
04:29AM 11.2597 -75.9960 354° North  Level FlightAware Approximate
04:30AM 11.5758 -76.0324 354° North  Level FlightAware Approximate
04:31AM 11.8912 -76.0689 354° North  Level FlightAware Approximate
04:32AM 12.2067 -76.1055 354° North  Level FlightAware Approximate
04:32AM 31.9239 -78.6411 353° North 442 509 37,000  Level Jacksonville Center
04:33AM 12.5221 -76.1421 354° North  Level FlightAware Approximate
04:33AM 32.0622 -78.6542 355° North 442 509 36,900  Level Jacksonville Center
04:34AM 12.8375 -76.1788 354° North  Level FlightAware Approximate
04:34AM 32.1872 -78.6508 North 442 509 36,900  Level Jacksonville Center
04:35AM 13.1530 -76.2157 354° North  Level FlightAware Approximate
04:36AM 13.4684 -76.2526 354° North  Level FlightAware Approximate
04:36AM 32.3692 -78.6092 11° North 435 501 37,000  Level Washington Center
04:37AM 13.7838 -76.2896 353° North  Level FlightAware Approximate
04:37AM 32.4950 -78.5889 North 448 516 37,000  Level Washington Center
04:38AM 14.0992 -76.3267 353° North  Level FlightAware Approximate
04:42AM 33.0780 -78.3270 North 461 531 37,000  Level FlightAware
04:43AM 33.1830 -78.2710 24° Northeast 461 531 37,000  Level FlightAware
04:43AM 33.2520 -78.2340 24° Northeast 459 528 37,000  Level FlightAware
04:44AM 33.3350 -78.1890 24° Northeast 457 526 37,000  Level FlightAware
04:45AM 33.4070 -78.1500 24° Northeast 455 524 37,000  Level FlightAware
04:45AM 33.4690 -78.1170 24° Northeast 454 522 37,000  Level FlightAware
04:46AM 33.5270 -78.0850 25° Northeast 454 522 37,000  Level FlightAware
04:46AM 33.5970 -78.0470 24° Northeast 453 521 37,000  Level FlightAware
04:47AM 33.5750 -78.0500 186° South 460 529 37,000  Level FlightAware
04:48AM 33.7620 -77.9200 30° Northeast 463 533 37,000  Level FlightAware
04:48AM 33.8280 -77.8850 24° Northeast 467 537 37,000  Level FlightAware
04:49AM 33.9190 -77.8390 23° Northeast 470 541 37,000 60 Level FlightAware
04:50AM 34.0010 -77.7960 23° Northeast 472 543 37,100 60 Climbing FlightAware
04:50AM 34.0570 -77.7670 23° Northeast 472 543 37,100  Level FlightAware
04:51AM 34.1220 -77.7340 23° Northeast 472 543 37,100  Level FlightAware
04:52AM 34.1840 -77.7020 23° Northeast 472 543 37,100  Level FlightAware
04:52AM 34.2470 -77.6700 23° Northeast 472 543 37,100  Level FlightAware
04:53AM 34.3100 -77.6370 23° Northeast 472 543 37,100  Level FlightAware
04:53AM 34.3730 -77.6050 23° Northeast 472 543 37,100  Level FlightAware
04:54AM 34.4350 -77.5730 23° Northeast 472 543 37,100  Level FlightAware
04:55AM 34.4960 -77.5410 23° Northeast 472 543 37,100  Level FlightAware
04:55AM 34.5600 -77.5090 22° Northeast 472 543 37,100  Level FlightAware
04:56AM 34.6210 -77.4770 23° Northeast 472 543 37,100  Level FlightAware
04:56AM 34.6840 -77.4440 23° Northeast 472 543 37,100  Level FlightAware
04:57AM 34.7480 -77.4120 22° Northeast 472 543 37,100  Level FlightAware
04:58AM 34.8110 -77.3790 23° Northeast 472 543 37,100  Level FlightAware
04:58AM 34.8720 -77.3470 23° Northeast 472 543 37,100  Level FlightAware
04:59AM 34.9340 -77.3150 23° Northeast 472 543 37,100  Level FlightAware
04:59AM 34.9950 -77.2840 23° Northeast 472 543 37,100  Level FlightAware
05:00AM 35.0570 -77.2520 23° Northeast 472 543 37,100 -120 Level FlightAware
05:01AM 35.3361 -77.1758 23° Northeast 454 522 37,000 -60 Descending Washington Center
05:02AM 35.4497 -77.0964 30° Northeast 460 529 37,000  Level Washington Center
05:03AM 35.5592 -77.0142 31° Northeast 466 536 37,000 -60 Level Washington Center
05:04AM 35.6686 -76.9369 30° Northeast 460 529 36,900 -60 Descending Washington Center
05:05AM 35.7819 -76.8697 26° Northeast 450 518 36,900  Level Washington Center
05:06AM 35.8997 -76.7997 26° Northeast 450 518 36,900  Level Washington Center
05:07AM 36.0150 -76.7269 27° Northeast 455 524 37,000  Climbing Washington Center
05:08AM 36.1325 -76.6592 25° Northeast 455 524 37,000  Level Washington Center
05:09AM 36.2519 -76.5861 26° Northeast 460 529 37,000 -60 Level Washington Center
05:10AM 36.3694 -76.5181 25° Northeast 460 529 36,900  Descending Washington Center
05:11AM 36.4869 -76.4472 26° Northeast 465 535 37,000  Climbing Washington Center
05:12AM 36.6042 -76.3758 26° Northeast 465 535 36,900  Descending Washington Center
05:13AM 36.7361 -76.2892 28° Northeast 465 535 37,000  Climbing Washington Center
05:14AM 36.8553 -76.2175 26° Northeast 475 547 37,000  Level Washington Center
05:15AM 36.9683 -76.1483 26° Northeast 475 547 37,000  Level Washington Center
05:16AM 37.0981 -76.0761 24° Northeast 487 560 37,000  Level Washington Center
05:17AM 37.2278 -75.9908 28° Northeast 482 555 37,000  Level Washington Center
05:18AM 37.3489 -75.9158 26° Northeast 482 555 37,000 -60 Level Washington Center
05:19AM 37.4700 -75.8403 26° Northeast 482 555 36,900  Descending Washington Center
05:20AM 37.5892 -75.7675 26° Northeast 482 555 37,000  Climbing Washington Center
05:21AM 37.7039 -75.6942 27° Northeast 468 539 37,000 -60 Level Washington Center
05:22AM 37.8206 -75.6206 26° Northeast 468 539 36,900 -60 Descending Washington Center
05:23AM 37.9375 -75.5497 26° Northeast 468 539 36,900  Level Washington Center
05:24AM 38.0481 -75.4731 29° Northeast 458 527 36,900  Level Washington Center
05:25AM 38.1667 -75.4042 25° Northeast 458 527 37,000  Climbing Washington Center
05:26AM 38.2792 -75.3300 27° Northeast 451 519 37,000  Level Washington Center
05:27AM 38.3792 -75.2500 32° Northeast 451 519 37,000 -60 Level Washington Center
05:28AM 38.4872 -75.1567 34° Northeast 461 531 36,900 -240 Descending Washington Center
05:29AM 38.5972 -75.0683 32° Northeast 466 536 36,600 -1,260 Descending Washington Center
05:30AM 38.7117 -74.9797 31° Northeast 471 542 34,400 -2,220 Descending Washington Center
05:31AM 38.8236 -74.8908 32° Northeast 471 542 32,200 -2,100 Descending Washington Center
05:32AM 38.9336 -74.8044 31° Northeast 471 542 30,200 -1,980 Descending Washington Center
05:33AM 39.0350 -74.7206 33° Northeast 460 529 28,300 -1,440 Descending Washington Center
05:35AM 39.4173 -74.4306 41° Northeast  Level FlightAware Approximate
05:42AM 40.6333 -73.7667 North  Level FlightAware Approximate
05:43AM 40.6398 -73.7789 North  Level Estimated
05:44AM 40.6398 -73.7789 North  Level Estimated
05:45AM 40.6398 -73.7789 North  Level Estimated
05:46AM 40.6398 -73.7789 North  Level Estimated
05:47AM 40.6398 -73.7789 North  Level Estimated
05:48AM 40.6398 -73.7789 North  Level Estimated
05:49AM 40.6398 -73.7789 North  Level Estimated
05:49AM 40.3360 -73.6320 North 280 322 6,200  Level FlightAware
05:49AM 40.3580 -73.6170 27° Northeast 267 307 6,000 -600 Descending FlightAware
05:50AM 40.3810 -73.6010 28° Northeast 253 291 5,800 -600 Descending FlightAware
05:50AM 40.4000 -73.5880 28° Northeast 242 278 5,600 -1,020 Descending FlightAware
05:50AM 40.4240 -73.5720 27° Northeast 239 275 5,100 -1,260 Descending FlightAware
05:51AM 40.4430 -73.5600 26° Northeast 239 275 4,700 -1,260 Descending FlightAware
05:51AM 40.4670 -73.5430 28° Northeast 238 274 4,200 -1,080 Descending FlightAware
05:52AM 40.4870 -73.5290 28° Northeast 235 270 3,900 -780 Descending FlightAware
05:52AM 40.5070 -73.5190 21° North 222 255 3,700 -660 Descending FlightAware
05:52AM 40.5300 -73.5290 342° North 199 229 3,400 -720 Descending FlightAware
05:52AM 40.5360 -73.5350 323° Northwest 193 222 3,300 -1,200 Descending FlightAware
05:53AM 40.5440 -73.5440 319° Northwest 191 220 3,000 -1,320 Descending FlightAware
05:53AM 40.5550 -73.5640 306° West 189 217 2,600 -840 Descending FlightAware
05:53AM 40.5660 -73.5880 301° West 190 219 2,400 -420 Descending FlightAware
05:54AM 40.5750 -73.6080 301° West 190 219 2,300 -300 Descending FlightAware
05:54AM 40.5840 -73.6280 301° West 188 216 2,200 -600 Descending FlightAware
05:54AM 40.5930 -73.6480 301° West 184 212 1,900 -960 Descending FlightAware
05:55AM 40.6030 -73.6700 301° West 162 186 1,500 -840 Descending FlightAware
05:55AM 40.6100 -73.6850 302° West 140 161 1,300 -720 Descending FlightAware
05:55AM 40.6170 -73.7000 302° West 129 148 1,000 -780 Descending FlightAware
05:56AM 40.6230 -73.7130 301° West 129 148 800 -600 Descending FlightAware
05:56AM 40.6300 -73.7280 302° West 130 150 600 -720 Descending FlightAware
05:57AM 40.6360 -73.7420 299° West 131 151 300 -780 Descending FlightAware
05:57AM 40.6420 -73.7560 299° West 133 153 100 -600 Descending FlightAware
05:57AM 40.6490 -73.7700 303° West 120 138 -300 Descending FlightAware